createdAt,value
2018-06-15T00:00:26.292Z,0.00
2018-06-15T00:01:26.266Z,0.00
2018-06-15T00:02:26.236Z,0.00
2018-06-15T00:03:26.234Z,0.00
2018-06-15T00:04:26.184Z,0.00
2018-06-15T00:05:26.171Z,0.00
2018-06-15T00:06:26.134Z,0.00
2018-06-15T00:07:26.112Z,0.00
2018-06-15T00:08:26.095Z,0.00
2018-06-15T00:09:26.061Z,0.00
2018-06-15T00:10:26.043Z,0.00
2018-06-15T00:11:26.017Z,0.00
2018-06-15T00:12:25.989Z,0.00
2018-06-15T00:13:25.962Z,0.00
2018-06-15T00:14:25.939Z,0.00
2018-06-15T00:15:25.914Z,0.00
2018-06-15T00:16:25.888Z,0.00
2018-06-15T00:17:25.871Z,0.00
2018-06-15T00:18:25.840Z,0.00
2018-06-15T00:19:25.817Z,0.00
2018-06-15T00:20:25.802Z,0.00
2018-06-15T00:21:25.763Z,0.00
2018-06-15T00:22:25.746Z,0.00
2018-06-15T00:23:25.722Z,0.00
2018-06-15T00:24:25.692Z,0.00
2018-06-15T00:25:25.672Z,0.00
2018-06-15T00:26:25.639Z,0.00
2018-06-15T00:27:25.617Z,0.00
2018-06-15T00:28:25.605Z,0.00
2018-06-15T00:29:25.568Z,0.00
2018-06-15T00:30:25.538Z,0.00
2018-06-15T00:31:25.524Z,0.00
2018-06-15T00:32:25.498Z,0.00
2018-06-15T00:33:25.474Z,0.00
2018-06-15T00:34:25.442Z,0.00
2018-06-15T00:35:25.424Z,0.00
2018-06-15T00:36:25.392Z,0.00
2018-06-15T00:37:25.371Z,0.00
2018-06-15T00:38:25.346Z,0.00
2018-06-15T00:39:25.314Z,0.00
2018-06-15T00:40:25.302Z,0.00
2018-06-15T00:41:25.275Z,0.00
2018-06-15T00:42:25.262Z,0.00
2018-06-15T00:43:25.219Z,0.00
2018-06-15T00:44:25.196Z,0.00
2018-06-15T00:45:25.171Z,0.00
2018-06-15T00:46:25.147Z,0.00
2018-06-15T00:47:25.122Z,0.00
2018-06-15T00:48:25.099Z,0.00
2018-06-15T00:49:25.076Z,0.00
2018-06-15T00:50:25.063Z,0.00
2018-06-15T00:51:25.026Z,0.00
2018-06-15T00:52:25.000Z,0.00
2018-06-15T00:53:24.976Z,0.00
2018-06-15T00:54:24.948Z,0.00
2018-06-15T00:55:24.927Z,0.00
2018-06-15T00:56:24.896Z,0.00
2018-06-15T00:57:24.879Z,0.00
2018-06-15T00:58:24.849Z,0.00
2018-06-15T00:59:24.829Z,0.00
2018-06-15T01:00:24.799Z,0.00
2018-06-15T01:01:24.773Z,0.00
2018-06-15T01:02:24.751Z,0.00
2018-06-15T01:03:24.733Z,0.00
2018-06-15T01:04:24.700Z,0.00
2018-06-15T01:05:24.682Z,0.00
2018-06-15T01:06:24.650Z,0.00
2018-06-15T01:07:24.632Z,0.00
2018-06-15T01:08:24.598Z,0.00
2018-06-15T01:09:24.580Z,0.00
2018-06-15T01:10:24.546Z,0.00
2018-06-15T01:11:24.543Z,0.00
2018-06-15T01:12:24.505Z,0.00
2018-06-15T01:13:24.483Z,0.00
2018-06-15T01:14:24.460Z,0.00
2018-06-15T01:15:24.422Z,0.00
2018-06-15T01:16:24.420Z,0.00
2018-06-15T01:17:24.395Z,0.00
2018-06-15T01:18:24.350Z,0.00
2018-06-15T01:19:24.326Z,0.00
2018-06-15T01:20:24.305Z,0.00
2018-06-15T01:21:24.276Z,0.00
2018-06-15T01:22:24.254Z,0.00
2018-06-15T01:23:24.226Z,0.00
2018-06-15T01:24:24.207Z,0.00
2018-06-15T01:25:24.179Z,0.00
2018-06-15T01:26:24.159Z,0.00
2018-06-15T01:27:24.128Z,0.00
2018-06-15T01:28:24.101Z,0.00
2018-06-15T01:29:24.084Z,0.00
2018-06-15T01:30:24.054Z,0.00
2018-06-15T01:31:24.034Z,0.00
2018-06-15T01:32:24.001Z,0.00
2018-06-15T01:33:23.979Z,0.00
2018-06-15T01:34:23.959Z,0.00
2018-06-15T01:35:23.932Z,0.00
2018-06-15T01:36:23.913Z,0.00
2018-06-15T01:37:23.885Z,0.00
2018-06-15T01:38:23.856Z,0.00
2018-06-15T01:39:23.858Z,0.00
2018-06-15T01:40:23.802Z,0.00
2018-06-15T01:41:23.788Z,0.00
2018-06-15T01:42:23.759Z,0.00
2018-06-15T01:43:23.735Z,0.00
2018-06-15T01:44:23.712Z,0.00
2018-06-15T01:45:23.684Z,0.00
2018-06-15T01:46:23.657Z,0.00
2018-06-15T01:47:23.629Z,0.00
2018-06-15T01:48:23.623Z,0.00
2018-06-15T01:49:23.588Z,0.00
2018-06-15T01:50:23.557Z,0.00
2018-06-15T01:51:23.539Z,0.00
2018-06-15T01:52:23.504Z,0.00
2018-06-15T01:53:23.485Z,0.00
2018-06-15T01:54:23.472Z,0.00
2018-06-15T01:55:23.436Z,0.00
2018-06-15T01:56:23.415Z,0.00
2018-06-15T01:57:23.386Z,0.00
2018-06-15T01:58:23.360Z,0.00
2018-06-15T01:59:23.334Z,0.00
2018-06-15T02:00:23.313Z,0.00
2018-06-15T02:01:23.357Z,0.00
2018-06-15T02:02:23.258Z,0.00
2018-06-15T02:03:23.242Z,0.00
2018-06-15T02:04:23.210Z,0.00
2018-06-15T02:05:23.193Z,0.00
2018-06-15T02:06:23.165Z,0.00
2018-06-15T02:07:23.134Z,0.00
2018-06-15T02:08:23.118Z,0.00
2018-06-15T02:09:23.091Z,0.00
2018-06-15T02:10:23.065Z,0.00
2018-06-15T02:11:23.038Z,0.00
2018-06-15T02:12:23.012Z,0.00
2018-06-15T02:13:23.044Z,0.00
2018-06-15T02:14:22.992Z,0.00
2018-06-15T02:15:22.940Z,0.00
2018-06-15T02:16:22.926Z,0.00
2018-06-15T02:17:22.893Z,0.00
2018-06-15T02:18:22.870Z,0.00
2018-06-15T02:19:22.849Z,0.00
2018-06-15T02:20:22.816Z,0.00
2018-06-15T02:21:22.813Z,0.00
2018-06-15T02:22:22.765Z,0.00
2018-06-15T02:23:22.746Z,0.00
2018-06-15T02:24:22.720Z,0.00
2018-06-15T02:25:22.691Z,0.00
2018-06-15T02:26:22.672Z,0.00
2018-06-15T02:27:22.644Z,0.00
2018-06-15T02:28:22.615Z,0.00
2018-06-15T02:29:22.601Z,0.00
2018-06-15T02:30:22.568Z,0.00
2018-06-15T02:31:22.570Z,0.00
2018-06-15T02:32:22.523Z,0.00
2018-06-15T02:33:22.495Z,0.00
2018-06-15T02:34:22.472Z,0.00
2018-06-15T02:35:22.446Z,0.00
2018-06-15T02:36:22.427Z,0.00
2018-06-15T02:37:22.402Z,0.00
2018-06-15T02:38:22.367Z,0.00
2018-06-15T02:39:22.354Z,0.00
2018-06-15T02:40:22.323Z,0.00
2018-06-15T02:41:22.297Z,0.00
2018-06-15T02:42:22.277Z,0.00
2018-06-15T02:43:22.254Z,0.00
2018-06-15T02:44:22.226Z,4.00
2018-06-15T02:45:22.303Z,4.00
2018-06-15T02:46:22.171Z,4.00
2018-06-15T02:47:22.152Z,0.00
2018-06-15T02:48:22.131Z,4.00
2018-06-15T02:49:22.096Z,4.00
2018-06-15T02:50:22.072Z,4.00
2018-06-15T02:51:22.053Z,4.00
2018-06-15T02:52:22.024Z,4.00
2018-06-15T02:53:22.007Z,8.00
2018-06-15T02:54:21.981Z,8.00
2018-06-15T02:55:21.949Z,8.00
2018-06-15T02:56:21.932Z,8.00
2018-06-15T02:57:21.907Z,12.00
2018-06-15T02:58:21.898Z,12.00
2018-06-15T02:59:21.853Z,16.00
2018-06-15T03:00:21.833Z,16.00
2018-06-15T03:01:21.800Z,16.00
2018-06-15T03:02:21.790Z,16.00
2018-06-15T03:03:21.802Z,24.00
2018-06-15T03:04:21.733Z,24.00
2018-06-15T03:05:21.710Z,28.00
2018-06-15T03:06:21.679Z,32.00
2018-06-15T03:07:21.652Z,32.00
2018-06-15T03:08:21.634Z,36.00
2018-06-15T03:09:21.603Z,40.00
2018-06-15T03:10:21.583Z,44.00
2018-06-15T03:11:21.550Z,48.00
2018-06-15T03:12:21.535Z,52.00
2018-06-15T03:13:21.506Z,56.00
2018-06-15T03:14:21.479Z,60.00
2018-06-15T03:15:21.579Z,64.00
2018-06-15T03:16:21.432Z,68.00
2018-06-15T03:17:21.410Z,72.00
2018-06-15T03:18:21.377Z,76.00
2018-06-15T03:19:21.368Z,80.00
2018-06-15T03:20:21.337Z,84.00
2018-06-15T03:21:21.301Z,84.00
2018-06-15T03:22:21.294Z,88.00
2018-06-15T03:23:21.252Z,88.00
2018-06-15T03:24:21.235Z,92.00
2018-06-15T03:25:21.207Z,88.00
2018-06-15T03:26:21.179Z,92.00
2018-06-15T03:27:21.155Z,96.00
2018-06-15T03:28:21.135Z,100.00
2018-06-15T03:29:21.108Z,100.00
2018-06-15T03:30:21.096Z,100.00
2018-06-15T03:31:21.060Z,100.00
2018-06-15T03:32:21.032Z,104.00
2018-06-15T03:33:21.022Z,100.00
2018-06-15T03:34:20.986Z,100.00
2018-06-15T03:35:20.965Z,108.00
2018-06-15T03:36:20.938Z,120.00
2018-06-15T03:37:20.907Z,124.00
2018-06-15T03:38:20.881Z,120.00
2018-06-15T03:39:20.874Z,124.00
2018-06-15T03:40:20.836Z,124.00
2018-06-15T03:41:20.819Z,124.00
2018-06-15T03:42:20.780Z,128.00
2018-06-15T03:43:20.761Z,128.00
2018-06-15T03:44:20.734Z,136.00
2018-06-15T03:45:20.713Z,148.00
2018-06-15T03:46:20.688Z,148.00
2018-06-15T03:47:20.662Z,152.00
2018-06-15T03:48:20.639Z,172.00
2018-06-15T03:49:20.611Z,192.00
2018-06-15T03:50:20.585Z,220.00
2018-06-15T03:51:20.559Z,252.00
2018-06-15T03:52:20.537Z,284.00
2018-06-15T03:53:20.509Z,304.00
2018-06-15T03:54:20.495Z,316.00
2018-06-15T03:55:20.594Z,328.00
2018-06-15T03:56:20.536Z,344.00
2018-06-15T03:57:20.420Z,360.00
2018-06-15T03:58:20.398Z,388.00
2018-06-15T03:59:20.363Z,400.00
2018-06-15T04:00:20.343Z,428.00
2018-06-15T04:01:20.320Z,440.00
2018-06-15T04:02:20.288Z,444.00
2018-06-15T04:03:20.271Z,464.00
2018-06-15T04:04:20.244Z,464.00
2018-06-15T04:05:20.219Z,460.00
2018-06-15T04:06:20.193Z,472.00
2018-06-15T04:07:20.179Z,468.00
2018-06-15T04:08:20.148Z,488.00
2018-06-15T04:09:20.120Z,520.00
2018-06-15T04:10:20.099Z,536.00
2018-06-15T04:11:20.071Z,560.00
2018-06-15T04:12:20.042Z,592.00
2018-06-15T04:13:20.019Z,608.00
2018-06-15T04:14:20.000Z,648.00
2018-06-15T04:15:19.969Z,652.00
2018-06-15T04:16:19.947Z,664.00
2018-06-15T04:17:19.928Z,688.00
2018-06-15T04:18:19.905Z,724.00
2018-06-15T04:19:19.869Z,748.00
2018-06-15T04:20:19.848Z,756.00
2018-06-15T04:21:19.824Z,776.00
2018-06-15T04:22:19.804Z,796.00
2018-06-15T04:23:19.781Z,820.00
2018-06-15T04:24:19.746Z,844.00
2018-06-15T04:25:19.724Z,884.00
2018-06-15T04:26:19.699Z,936.00
2018-06-15T04:27:19.679Z,952.00
2018-06-15T04:28:19.656Z,952.00
2018-06-15T04:29:19.631Z,960.00
2018-06-15T04:30:19.598Z,972.00
2018-06-15T04:31:19.582Z,972.00
2018-06-15T04:32:19.556Z,964.00
2018-06-15T04:33:19.527Z,980.00
2018-06-15T04:34:19.507Z,1008.00
2018-06-15T04:35:19.480Z,1032.00
2018-06-15T04:36:19.458Z,1032.00
2018-06-15T04:37:19.441Z,1052.00
2018-06-15T04:38:19.408Z,1048.00
2018-06-15T04:39:19.384Z,1032.00
2018-06-15T04:40:19.355Z,1044.00
2018-06-15T04:41:19.337Z,1060.00
2018-06-15T04:42:19.306Z,1076.00
2018-06-15T04:43:19.285Z,1092.00
2018-06-15T04:44:19.264Z,1120.00
2018-06-15T04:45:19.233Z,1108.00
2018-06-15T04:46:19.215Z,1140.00
2018-06-15T04:47:19.218Z,1192.00
2018-06-15T04:48:19.158Z,1200.00
2018-06-15T04:49:19.143Z,1224.00
2018-06-15T04:50:19.131Z,1260.00
2018-06-15T04:51:19.089Z,1284.00
2018-06-15T04:52:19.062Z,1304.00
2018-06-15T04:53:19.043Z,1312.00
2018-06-15T04:54:19.017Z,1336.00
2018-06-15T04:55:18.990Z,1308.00
2018-06-15T04:56:19.017Z,1300.00
2018-06-15T04:57:18.946Z,1300.00
2018-06-15T04:58:18.917Z,1324.00
2018-06-15T04:59:19.012Z,1376.00
2018-06-15T05:00:18.873Z,1396.00
2018-06-15T05:01:18.851Z,1416.00
2018-06-15T05:02:18.817Z,1428.00
2018-06-15T05:03:18.816Z,1448.00
2018-06-15T05:04:18.779Z,1432.00
2018-06-15T05:05:18.744Z,1388.00
2018-06-15T05:06:18.733Z,1332.00
2018-06-15T05:07:18.703Z,1300.00
2018-06-15T05:08:18.677Z,1324.00
2018-06-15T05:09:18.691Z,1356.00
2018-06-15T05:10:18.620Z,1384.00
2018-06-15T05:11:18.600Z,1356.00
2018-06-15T05:12:18.607Z,1348.00
2018-06-15T05:13:18.552Z,1364.00
2018-06-15T05:14:18.528Z,1432.00
2018-06-15T05:15:18.505Z,1444.00
2018-06-15T05:16:18.478Z,1484.00
2018-06-15T05:17:18.532Z,1492.00
2018-06-15T05:18:18.455Z,1580.00
2018-06-15T05:19:18.409Z,1680.00
2018-06-15T05:20:18.391Z,1840.00
2018-06-15T05:21:18.366Z,2004.00
2018-06-15T05:22:18.330Z,2068.00
2018-06-15T05:23:18.313Z,2036.00
2018-06-15T05:24:18.290Z,2152.00
2018-06-15T05:25:18.257Z,2324.00
2018-06-15T05:26:18.242Z,2392.00
2018-06-15T05:27:18.217Z,2336.00
2018-06-15T05:28:18.191Z,2272.00
2018-06-15T05:29:18.167Z,2340.00
2018-06-15T05:30:18.166Z,2364.00
2018-06-15T05:31:18.114Z,2376.00
2018-06-15T05:32:18.093Z,2536.00
2018-06-15T05:33:18.073Z,2520.00
2018-06-15T05:34:18.037Z,2424.00
2018-06-15T05:35:18.030Z,2508.00
2018-06-15T05:36:18.010Z,2580.00
2018-06-15T05:37:17.965Z,2584.00
2018-06-15T05:38:17.951Z,2584.00
2018-06-15T05:39:17.920Z,2556.00
2018-06-15T05:40:17.899Z,2556.00
2018-06-15T05:41:17.873Z,2620.00
2018-06-15T05:42:17.852Z,2612.00
2018-06-15T05:43:17.824Z,2664.00
2018-06-15T05:44:17.800Z,2636.00
2018-06-15T05:45:17.776Z,2624.00
2018-06-15T05:46:17.753Z,2688.00
2018-06-15T05:47:17.728Z,2632.00
2018-06-15T05:48:17.708Z,2624.00
2018-06-15T05:49:17.675Z,2704.00
2018-06-15T05:50:17.660Z,2728.00
2018-06-15T05:51:17.635Z,2728.00
2018-06-15T05:52:17.605Z,2728.00
2018-06-15T05:53:17.592Z,2844.00
2018-06-15T05:54:17.555Z,2968.00
2018-06-15T05:55:17.538Z,2904.00
2018-06-15T05:56:17.518Z,2868.00
2018-06-15T05:57:17.484Z,2836.00
2018-06-15T05:58:17.477Z,2816.00
2018-06-15T05:59:17.455Z,2776.00
2018-06-15T06:00:17.412Z,2800.00
2018-06-15T06:01:17.396Z,2708.00
2018-06-15T06:02:17.366Z,2612.00
2018-06-15T06:03:17.347Z,2688.00
2018-06-15T06:04:17.343Z,2756.00
2018-06-15T06:05:17.300Z,2832.00
2018-06-15T06:06:17.267Z,2780.00
2018-06-15T06:07:17.284Z,2716.00
2018-06-15T06:08:17.230Z,2740.00
2018-06-15T06:09:17.197Z,2768.00
2018-06-15T06:10:17.182Z,2800.00
2018-06-15T06:11:17.157Z,2852.00
2018-06-15T06:12:17.125Z,2736.00
2018-06-15T06:13:17.108Z,2820.00
2018-06-15T06:14:17.076Z,2872.00
2018-06-15T06:15:17.057Z,2844.00
2018-06-15T06:16:17.030Z,2944.00
2018-06-15T06:17:17.003Z,2924.00
2018-06-15T06:18:16.984Z,2936.00
2018-06-15T06:19:16.957Z,2988.00
2018-06-15T06:20:16.941Z,3032.00
2018-06-15T06:21:16.917Z,3148.00
2018-06-15T06:22:16.887Z,3224.00
2018-06-15T06:23:16.874Z,3044.00
2018-06-15T06:24:16.838Z,2864.00
2018-06-15T06:25:16.817Z,2784.00
2018-06-15T06:26:16.794Z,2644.00
2018-06-15T06:27:16.772Z,2288.00
2018-06-15T06:28:16.749Z,2468.00
2018-06-15T06:29:16.716Z,2756.00
2018-06-15T06:30:16.700Z,3036.00
2018-06-15T06:31:16.684Z,3256.00
2018-06-15T06:32:16.657Z,3320.00
2018-06-15T06:33:16.631Z,3364.00
2018-06-15T06:34:16.603Z,3388.00
2018-06-15T06:35:16.581Z,3304.00
2018-06-15T06:36:16.552Z,3028.00
2018-06-15T06:37:16.529Z,3152.00
2018-06-15T06:38:16.508Z,3496.00
2018-06-15T06:39:16.480Z,3440.00
2018-06-15T06:40:16.466Z,3648.00
2018-06-15T06:41:16.437Z,3512.00
2018-06-15T06:42:16.408Z,3540.00
2018-06-15T06:43:16.387Z,3716.00
2018-06-15T06:44:16.375Z,3916.00
2018-06-15T06:45:16.339Z,3900.00
2018-06-15T06:46:16.317Z,3960.00
2018-06-15T06:47:16.291Z,3804.00
2018-06-15T06:48:16.270Z,3736.00
2018-06-15T06:49:16.246Z,3780.00
2018-06-15T06:50:16.230Z,3820.00
2018-06-15T06:51:16.192Z,3876.00
2018-06-15T06:52:16.179Z,3980.00
2018-06-15T06:53:16.147Z,3920.00
2018-06-15T06:54:16.135Z,3588.00
2018-06-15T06:55:16.101Z,3344.00
2018-06-15T06:56:16.081Z,3224.00
2018-06-15T06:57:16.079Z,3008.00
2018-06-15T06:58:16.026Z,2980.00
2018-06-15T06:59:16.006Z,2928.00
2018-06-15T07:00:15.994Z,2828.00
2018-06-15T07:01:15.964Z,3108.00
2018-06-15T07:02:15.977Z,3456.00
2018-06-15T07:03:15.910Z,3988.00
2018-06-15T07:04:15.884Z,3872.00
2018-06-15T07:05:15.872Z,4232.00
2018-06-15T07:06:15.897Z,4216.00
2018-06-15T07:07:15.817Z,4056.00
2018-06-15T07:08:15.797Z,4076.00
2018-06-15T07:09:15.786Z,4312.00
2018-06-15T07:10:15.745Z,4688.00
2018-06-15T07:11:15.768Z,5280.00
2018-06-15T07:12:15.737Z,5392.00
2018-06-15T07:13:15.740Z,5048.00
2018-06-15T07:14:15.664Z,4440.00
2018-06-15T07:15:15.628Z,3524.00
2018-06-15T07:16:15.622Z,3012.00
2018-06-15T07:17:15.594Z,2748.00
2018-06-15T07:18:15.560Z,2812.00
2018-06-15T07:19:15.544Z,3172.00
2018-06-15T07:20:15.511Z,3620.00
2018-06-15T07:21:15.487Z,3804.00
2018-06-15T07:22:15.462Z,3892.00
2018-06-15T07:23:15.438Z,3916.00
2018-06-15T07:24:15.425Z,4048.00
2018-06-15T07:25:15.397Z,4192.00
2018-06-15T07:26:15.372Z,4180.00
2018-06-15T07:27:15.355Z,4048.00
2018-06-15T07:28:15.332Z,3664.00
2018-06-15T07:29:15.301Z,3260.00
2018-06-15T07:30:15.308Z,3096.00
2018-06-15T07:31:15.255Z,2976.00
2018-06-15T07:32:15.230Z,3004.00
2018-06-15T07:33:15.211Z,3004.00
2018-06-15T07:34:15.189Z,3116.00
2018-06-15T07:35:15.165Z,3148.00
2018-06-15T07:36:15.135Z,2968.00
2018-06-15T07:37:15.114Z,2732.00
2018-06-15T07:38:15.093Z,2720.00
2018-06-15T07:39:15.082Z,2792.00
2018-06-15T07:40:15.046Z,2668.00
2018-06-15T07:41:15.020Z,2588.00
2018-06-15T07:42:14.997Z,2568.00
2018-06-15T07:43:14.972Z,2788.00
2018-06-15T07:44:14.956Z,2884.00
2018-06-15T07:45:14.930Z,2876.00
2018-06-15T07:46:14.903Z,2804.00
2018-06-15T07:47:14.888Z,2712.00
2018-06-15T07:48:14.859Z,2744.00
2018-06-15T07:49:14.840Z,2740.00
2018-06-15T07:50:14.807Z,2820.00
2018-06-15T07:51:14.781Z,2864.00
2018-06-15T07:52:14.761Z,3236.00
2018-06-15T07:53:14.740Z,3532.00
2018-06-15T07:54:14.714Z,3400.00
2018-06-15T07:55:14.707Z,3504.00
2018-06-15T07:56:14.671Z,3704.00
2018-06-15T07:57:14.641Z,3828.00
2018-06-15T07:58:14.627Z,3752.00
2018-06-15T07:59:14.615Z,3924.00
2018-06-15T08:00:14.577Z,4140.00
2018-06-15T08:01:14.555Z,4296.00
2018-06-15T08:02:14.522Z,4200.00
2018-06-15T08:03:14.512Z,4044.00
2018-06-15T08:04:14.483Z,4276.00
2018-06-15T08:05:14.473Z,4460.00
2018-06-15T08:06:14.437Z,4636.00
2018-06-15T08:07:14.413Z,4832.00
2018-06-15T08:08:14.386Z,4796.00
2018-06-15T08:09:14.365Z,4948.00
2018-06-15T08:10:14.385Z,5112.00
2018-06-15T08:11:14.329Z,5072.00
2018-06-15T08:12:14.285Z,5000.00
2018-06-15T08:13:14.270Z,4764.00
2018-06-15T08:14:14.244Z,4524.00
2018-06-15T08:15:14.221Z,4616.00
2018-06-15T08:16:14.200Z,4840.00
2018-06-15T08:17:14.170Z,5044.00
2018-06-15T08:18:14.153Z,5040.00
2018-06-15T08:19:14.133Z,5056.00
2018-06-15T08:20:14.099Z,5076.00
2018-06-15T08:21:14.080Z,5020.00
2018-06-15T08:22:14.049Z,4928.00
2018-06-15T08:23:14.029Z,4792.00
2018-06-15T08:24:14.013Z,4620.00
2018-06-15T08:25:13.991Z,4588.00
2018-06-15T08:26:13.962Z,4572.00
2018-06-15T08:27:13.935Z,4616.00
2018-06-15T08:28:13.921Z,4512.00
2018-06-15T08:29:13.893Z,4456.00
2018-06-15T08:30:13.869Z,4084.00
2018-06-15T08:31:13.851Z,3960.00
2018-06-15T08:32:13.818Z,3908.00
2018-06-15T08:33:13.797Z,3900.00
2018-06-15T08:34:13.777Z,4088.00
2018-06-15T08:35:13.748Z,4076.00
2018-06-15T08:36:13.733Z,4232.00
2018-06-15T08:37:13.708Z,4620.00
2018-06-15T08:38:13.691Z,4820.00
2018-06-15T08:39:13.664Z,4904.00
2018-06-15T08:40:13.878Z,4964.00
2018-06-15T08:41:13.616Z,4892.00
2018-06-15T08:42:13.596Z,4884.00
2018-06-15T08:43:13.577Z,4596.00
2018-06-15T08:44:13.542Z,4140.00
2018-06-15T08:45:13.520Z,3844.00
2018-06-15T08:46:13.502Z,3560.00
2018-06-15T08:47:13.469Z,3476.00
2018-06-15T08:48:13.453Z,2828.00
2018-06-15T08:49:13.429Z,2848.00
2018-06-15T08:50:13.404Z,3072.00
2018-06-15T08:51:13.385Z,2656.00
2018-06-15T08:52:13.353Z,2492.00
2018-06-15T08:53:13.333Z,2408.00
2018-06-15T08:54:13.308Z,2428.00
2018-06-15T08:55:13.284Z,2044.00
2018-06-15T08:56:13.264Z,1864.00
2018-06-15T08:57:13.242Z,2004.00
2018-06-15T08:58:13.218Z,2024.00
2018-06-15T08:59:13.189Z,1980.00
2018-06-15T09:00:13.177Z,2144.00
2018-06-15T09:01:13.160Z,2160.00
2018-06-15T09:02:13.126Z,2320.00
2018-06-15T09:03:13.107Z,2520.00
2018-06-15T09:04:13.077Z,2476.00
2018-06-15T09:05:13.054Z,2612.00
2018-06-15T09:06:13.033Z,2592.00
2018-06-15T09:07:13.013Z,2332.00
2018-06-15T09:08:12.985Z,2172.00
2018-06-15T09:09:12.958Z,2092.00
2018-06-15T09:10:12.953Z,2156.00
2018-06-15T09:11:12.918Z,2344.00
2018-06-15T09:12:12.889Z,2316.00
2018-06-15T09:13:12.868Z,2156.00
2018-06-15T09:14:12.842Z,2032.00
2018-06-15T09:15:12.820Z,2068.00
2018-06-15T09:16:12.842Z,2068.00
2018-06-15T09:17:12.773Z,2040.00
2018-06-15T09:18:12.824Z,2000.00
2018-06-15T09:19:12.891Z,1980.00
2018-06-15T09:20:12.701Z,1936.00
2018-06-15T09:21:12.686Z,2028.00
2018-06-15T09:22:12.654Z,2060.00
2018-06-15T09:23:12.701Z,2068.00
2018-06-15T09:24:12.605Z,2092.00
2018-06-15T09:25:12.591Z,2148.00
2018-06-15T09:26:12.559Z,2216.00
2018-06-15T09:27:12.536Z,2304.00
2018-06-15T09:28:12.514Z,2332.00
2018-06-15T09:29:12.493Z,2352.00
2018-06-15T09:30:12.466Z,2376.00
2018-06-15T09:31:12.449Z,2396.00
2018-06-15T09:32:12.420Z,2424.00
2018-06-15T09:33:12.441Z,2480.00
2018-06-15T09:34:12.377Z,2508.00
2018-06-15T09:35:12.354Z,2544.00
2018-06-15T09:36:12.333Z,2500.00
2018-06-15T09:37:12.304Z,2520.00
2018-06-15T09:38:12.280Z,2540.00
2018-06-15T09:39:12.252Z,2564.00
2018-06-15T09:40:12.236Z,2588.00
2018-06-15T09:41:12.234Z,2756.00
2018-06-15T09:42:12.266Z,2912.00
2018-06-15T09:43:12.165Z,3156.00
2018-06-15T09:44:12.139Z,3368.00
2018-06-15T09:45:12.116Z,3576.00
2018-06-15T09:46:12.098Z,3780.00
2018-06-15T09:47:12.149Z,3788.00
2018-06-15T09:48:12.053Z,3560.00
2018-06-15T09:49:12.075Z,3468.00
2018-06-15T09:50:12.011Z,3524.00
2018-06-15T09:51:11.973Z,3592.00
2018-06-15T09:52:11.951Z,3540.00
2018-06-15T09:53:11.921Z,3280.00
2018-06-15T09:54:11.957Z,3108.00
2018-06-15T09:55:11.885Z,3188.00
2018-06-15T09:56:11.852Z,3560.00
2018-06-15T09:57:11.878Z,3952.00
2018-06-15T09:58:11.840Z,4296.00
2018-06-15T09:59:11.853Z,5196.00
2018-06-15T10:00:11.759Z,5904.00
2018-06-15T10:01:11.748Z,5536.00
2018-06-15T10:02:11.721Z,4728.00
2018-06-15T10:03:11.746Z,4356.00
2018-06-15T10:04:11.751Z,4228.00
2018-06-15T10:05:11.641Z,4676.00
2018-06-15T10:06:11.707Z,4860.00
2018-06-15T10:07:11.601Z,4520.00
2018-06-15T10:08:11.571Z,4648.00
2018-06-15T10:09:11.589Z,4700.00
2018-06-15T10:10:11.583Z,4224.00
2018-06-15T10:11:11.565Z,3812.00
2018-06-15T10:12:11.497Z,4096.00
2018-06-15T10:13:11.631Z,3972.00
2018-06-15T10:14:11.441Z,3800.00
2018-06-15T10:15:11.417Z,3424.00
2018-06-15T10:16:11.385Z,3208.00
2018-06-15T10:17:11.364Z,3180.00
2018-06-15T10:18:11.337Z,3332.00
2018-06-15T10:19:11.366Z,3480.00
2018-06-15T10:20:11.297Z,3716.00
2018-06-15T10:21:11.312Z,3944.00
2018-06-15T10:22:11.346Z,4320.00
2018-06-15T10:23:11.228Z,4432.00
2018-06-15T10:24:11.209Z,4508.00
2018-06-15T10:25:11.270Z,4940.00
2018-06-15T10:26:11.163Z,4916.00
2018-06-15T10:27:11.167Z,4912.00
2018-06-15T10:28:11.117Z,4860.00
2018-06-15T10:29:11.088Z,4948.00
2018-06-15T10:30:11.068Z,5596.00
2018-06-15T10:31:11.043Z,5884.00
2018-06-15T10:32:11.022Z,5908.00
2018-06-15T10:33:11.054Z,6056.00
2018-06-15T10:34:10.975Z,6100.00
2018-06-15T10:35:10.947Z,6144.00
2018-06-15T10:36:10.957Z,6032.00
2018-06-15T10:37:10.906Z,5932.00
2018-06-15T10:38:10.934Z,5740.00
2018-06-15T10:39:10.967Z,5116.00
2018-06-15T10:40:10.885Z,4524.00
2018-06-15T10:41:10.873Z,4012.00
2018-06-15T10:42:10.820Z,3488.00
2018-06-15T10:43:10.833Z,3256.00
2018-06-15T10:44:10.748Z,3124.00
2018-06-15T10:45:10.808Z,2880.00
2018-06-15T10:46:10.723Z,2912.00
2018-06-15T10:47:10.683Z,2948.00
2018-06-15T10:48:10.694Z,2936.00
2018-06-15T10:49:10.630Z,2884.00
2018-06-15T10:50:10.630Z,2920.00
2018-06-15T10:51:10.649Z,2992.00
2018-06-15T10:52:10.588Z,3132.00
2018-06-15T10:53:10.551Z,3508.00
2018-06-15T10:54:10.582Z,3608.00
2018-06-15T10:55:10.525Z,3460.00
2018-06-15T10:56:10.522Z,3152.00
2018-06-15T10:57:10.453Z,3068.00
2018-06-15T10:58:10.471Z,2972.00
2018-06-15T10:59:10.430Z,3212.00
2018-06-15T11:00:10.390Z,3460.00
2018-06-15T11:01:10.363Z,3736.00
2018-06-15T11:02:10.341Z,3428.00
2018-06-15T11:03:10.319Z,3376.00
2018-06-15T11:04:10.302Z,3184.00
2018-06-15T11:05:10.348Z,3164.00
2018-06-15T11:06:10.253Z,3336.00
2018-06-15T11:07:10.277Z,3148.00
2018-06-15T11:08:10.194Z,3192.00
2018-06-15T11:09:10.186Z,3208.00
2018-06-15T11:10:10.156Z,3240.00
2018-06-15T11:11:10.129Z,3292.00
2018-06-15T11:12:10.109Z,3288.00
2018-06-15T11:13:10.089Z,3364.00
2018-06-15T11:14:10.058Z,3424.00
2018-06-15T11:15:10.041Z,3472.00
2018-06-15T11:16:10.013Z,3572.00
2018-06-15T11:17:09.992Z,3532.00
2018-06-15T11:18:09.976Z,3464.00
2018-06-15T11:19:09.945Z,3464.00
2018-06-15T11:20:09.921Z,3516.00
2018-06-15T11:21:09.900Z,3668.00
2018-06-15T11:22:09.877Z,3784.00
2018-06-15T11:23:09.854Z,3948.00
2018-06-15T11:24:09.833Z,4036.00
2018-06-15T11:25:09.810Z,4132.00
2018-06-15T11:26:09.791Z,4376.00
2018-06-15T11:27:09.762Z,4060.00
2018-06-15T11:28:09.738Z,3680.00
2018-06-15T11:29:09.720Z,3576.00
2018-06-15T11:30:09.699Z,3472.00
2018-06-15T11:31:09.701Z,3432.00
2018-06-15T11:32:09.657Z,3404.00
2018-06-15T11:33:09.627Z,3276.00
2018-06-15T11:34:09.603Z,3512.00
2018-06-15T11:35:09.584Z,3716.00
2018-06-15T11:36:09.558Z,3884.00
2018-06-15T11:37:09.535Z,4084.00
2018-06-15T11:38:09.510Z,4232.00
2018-06-15T11:39:09.486Z,4248.00
2018-06-15T11:40:09.475Z,4312.00
2018-06-15T11:41:09.536Z,4288.00
2018-06-15T11:42:09.424Z,4344.00
2018-06-15T11:43:09.408Z,4440.00
2018-06-15T11:44:09.370Z,4636.00
2018-06-15T11:45:09.358Z,4872.00
2018-06-15T11:46:09.327Z,5100.00
2018-06-15T11:47:09.310Z,5352.00
2018-06-15T11:48:09.289Z,5316.00
2018-06-15T11:49:09.265Z,5368.00
2018-06-15T11:50:09.237Z,5784.00
2018-06-15T11:51:09.223Z,5900.00
2018-06-15T11:52:09.191Z,5872.00
2018-06-15T11:53:09.176Z,5740.00
2018-06-15T11:54:09.152Z,5724.00
2018-06-15T11:55:09.156Z,5732.00
2018-06-15T11:56:09.105Z,6152.00
2018-06-15T11:57:09.080Z,6104.00
2018-06-15T11:58:09.061Z,6532.00
2018-06-15T11:59:09.053Z,6196.00
2018-06-15T12:00:09.024Z,6108.00
2018-06-15T12:01:08.993Z,5660.00
2018-06-15T12:02:08.973Z,5568.00
2018-06-15T12:03:08.945Z,5280.00
2018-06-15T12:04:08.929Z,5120.00
2018-06-15T12:05:08.905Z,5076.00
2018-06-15T12:06:08.886Z,4872.00
2018-06-15T12:07:08.863Z,4844.00
2018-06-15T12:08:08.840Z,4836.00
2018-06-15T12:09:08.892Z,4824.00
2018-06-15T12:10:08.797Z,4748.00
2018-06-15T12:11:08.772Z,4676.00
2018-06-15T12:12:08.753Z,4664.00
2018-06-15T12:13:08.726Z,4156.00
2018-06-15T12:14:08.707Z,3964.00
2018-06-15T12:15:08.685Z,3832.00
2018-06-15T12:16:08.656Z,3988.00
2018-06-15T12:17:08.644Z,4504.00
2018-06-15T12:18:08.611Z,4664.00
2018-06-15T12:19:08.599Z,4684.00
2018-06-15T12:20:08.579Z,4684.00
2018-06-15T12:21:08.546Z,4684.00
2018-06-15T12:22:08.533Z,4916.00
2018-06-15T12:23:08.532Z,4932.00
2018-06-15T12:24:08.479Z,5108.00
2018-06-15T12:25:08.461Z,5060.00